Flight Track Log - Related Links

Times and Time Zones

All times are in EDT time to prevent confusion due to time zone crossing. See the AFR1326 flight status page for this flight to view local times or setup timezone preferences in your user account.

Time Position Orientation Groundspeed Altitude Reporting Facility
EDT Latitude Longitude Course Direction KTS MPH feet Rate Location/Type
Sat 03:13:40 PM 49.0070 2.5730 194° South 2 2  Level FlightAware ADS-B
Sat 03:17:20 PM 49.0080 2.5720 327° Northwest 9 10 91 Level FlightAware ADS-B
Sat 03:18:15 PM 49.0080 2.5680 270° West 15 17 136 Level FlightAware ADS-B
Sat 03:18:50 PM 49.0080 2.5640 270° West 21 24 156 Level FlightAware ADS-B
Sat 03:19:14 PM 49.0080 2.5610 270° West 19 22 171 Level FlightAware ADS-B
Sat 03:19:40 PM 49.0070 2.5570 249° West 22 25 184 Level FlightAware ADS-B
Sat 03:20:40 PM 49.0040 2.5550 204° Southwest 20 23 200 Level FlightAware ADS-B
Sat 03:21:05 PM 49.0020 2.5560 162° South 23 26 250 Level FlightAware ADS-B
Sat 03:21:35 PM 48.9990 2.5560 180° South 19 22 279 Level FlightAware ADS-B
Sat 03:21:50 PM 48.9980 2.5570 147° Southeast 19 22 324 Level FlightAware ADS-B
Sat 03:22:11 PM 48.9980 2.5580 90° East 10 12 353 Level FlightAware ADS-B
Sat 03:22:39 PM 48.9970 2.5580 180° South 5 6 403 Level FlightAware ADS-B
Sat 03:23:09 PM 48.9960 2.5580 180° South 7 8 496 Level FlightAware ADS-B
Sat 03:23:45 PM 48.9960 2.5590 90° East 16 18 659 Level FlightAware ADS-B
Sat 03:24:10 PM 48.9970 2.5730 84° East 125 144 1,091 Level FlightAware ADS-B
Sat 03:24:40 PM 48.9980 2.6020 87° East 136 157 1,000 2,073 Climbing FlightAware ADS-B
Sat 03:25:05 PM 48.9990 2.6240 86° East 133 153 1,900 2,100 Climbing FlightAware ADS-B
Sat 03:25:20 PM 49.0000 2.6400 85° East 135 155 2,400 2,100 Climbing FlightAware ADS-B
Sat 03:25:45 PM 49.0020 2.6630 82° East 135 155 3,300 1,800 Climbing FlightAware ADS-B
Sat 03:26:00 PM 49.0020 2.6790 90° East 149 171 3,600 933 Climbing FlightAware ADS-B
Sat 03:26:30 PM 49.0040 2.7150 85° East 195 224 4,000 1,300 Climbing FlightAware ADS-B
Sat 03:27:00 PM 49.0060 2.7630 86° East 247 284 4,900 2,644 Climbing FlightAware ADS-B
Sat 03:27:29 PM 49.0030 2.8180 95° East 264 304 6,600 3,600 Climbing FlightAware ADS-B
Sat 03:27:40 PM 49.0000 2.8380 103° East 267 307 7,300 3,568 Climbing FlightAware ADS-B
Sat 03:28:06 PM 48.9960 2.8880 97° East 275 316 8,800 2,914 Climbing FlightAware ADS-B
Sat 03:28:50 PM 48.9870 2.9740 99° East 300 345 10,700 2,600 Climbing FlightAware ADS-B
Sat 03:29:36 PM 48.9790 3.0760 97° East 327 376 12,700 2,795 Climbing FlightAware ADS-B
Sat 03:30:18 PM 48.9710 3.1730 97° East 335 386 14,800 2,707 Climbing FlightAware ADS-B
Sat 03:30:58 PM 48.9630 3.2690 97° East 353 406 16,400 2,602 Climbing FlightAware ADS-B
Sat 03:31:41 PM 48.9420 3.3740 107° East 366 421 18,400 2,675 Climbing FlightAware ADS-B
Sat 03:32:21 PM 48.9200 3.4740 108° East 382 440 20,100 2,430 Climbing FlightAware ADS-B
Sat 03:33:00 PM 48.9000 3.5660 108° East 391 450 21,600 2,296 Climbing FlightAware ADS-B
Sat 03:33:42 PM 48.8760 3.6740 109° East 408 470 23,200 2,329 Climbing FlightAware ADS-B
Sat 03:34:25 PM 48.8470 3.8010 109° East 421 484 24,900 2,286 Climbing FlightAware ADS-B
Sat 03:35:06 PM 48.8200 3.9240 108° East 434 499 26,400 2,471 Climbing FlightAware ADS-B
Sat 03:36:07 PM 48.7810 4.0940 109° East 427 491 29,100 2,673 Climbing FlightAware ADS-B
Sat 03:36:47 PM 48.7550 4.2070 109° East 421 484 30,900 2,429 Climbing FlightAware ADS-B
Sat 03:37:31 PM 48.7280 4.3260 109° East 419 482 32,500 1,769 Climbing FlightAware ADS-B
Sat 03:38:05 PM 48.7050 4.4250 109° East 429 494 33,200 1,463 Climbing FlightAware ADS-B
Sat 03:38:53 PM 48.6730 4.5620 109° East 435 501 34,500 1,667 Climbing FlightAware ADS-B
Sat 03:39:35 PM 48.6460 4.6800 109° East 433 498 35,700 1,703 Climbing FlightAware ADS-B
Sat 03:40:07 PM 48.6250 4.7690 110° East 431 496 36,600 1,013 Climbing FlightAware ADS-B
Sat 03:40:52 PM 48.5930 4.9040 110° East 448 516 37,000 286 Climbing FlightAware ADS-B
Sat 03:41:31 PM 48.5670 5.0170 109° East 456 525 37,000  Level FlightAware ADS-B
Sat 03:42:07 PM 48.5400 5.1260 110° East 455 524 37,000  Level FlightAware ADS-B
Sat 03:42:50 PM 48.5100 5.2520 110° East 456 525 37,000  Level FlightAware ADS-B
Sat 03:43:35 PM 48.4770 5.3900 110° East 458 527 37,000  Level FlightAware ADS-B
Sat 03:44:14 PM 48.4510 5.4990 110° East 460 529 37,000 72 Level FlightAware ADS-B
Sat 03:44:58 PM 48.4170 5.6370 110° East 459 528 37,100  Climbing FlightAware ADS-B
Sat 03:45:38 PM 48.3880 5.7550 110° East 458 527 37,000 -71 Descending FlightAware ADS-B
Sat 03:46:22 PM 48.3570 5.8840 110° East 455 524 37,000  Level FlightAware ADS-B
Sat 03:47:11 PM 48.3210 6.0280 111° Southeast 449 517 37,000  Level FlightAware ADS-B
Sat 03:47:51 PM 48.2910 6.1470 111° Southeast 448 516 37,000  Level FlightAware ADS-B
Sat 03:48:36 PM 48.2580 6.2780 111° Southeast 452 520 37,000  Level FlightAware ADS-B
Sat 03:49:16 PM 48.2300 6.3930 110° East 453 521 37,000  Level FlightAware ADS-B
Sat 03:49:56 PM 48.1990 6.5130 111° Southeast 456 525 37,000  Level FlightAware ADS-B
Sat 03:50:41 PM 48.1650 6.6470 111° Southeast 460 529 37,000  Level FlightAware ADS-B
Sat 03:51:21 PM 48.1350 6.7670 110° East 464 534 37,000  Level FlightAware ADS-B
Sat 03:52:01 PM 48.1050 6.8810 111° Southeast 462 532 37,000  Level FlightAware ADS-B
Sat 03:52:36 PM 48.0770 6.9880 111° Southeast 464 534 37,000  Level FlightAware ADS-B
Sat 03:53:21 PM 48.0410 7.1270 111° Southeast 466 536 37,000  Level FlightAware ADS-B
Sat 03:54:01 PM 48.0100 7.2470 111° Southeast 466 536 37,000  Level FlightAware ADS-B
Sat 03:54:41 PM 47.9790 7.3650 111° Southeast 466 536 37,000  Level FlightAware ADS-B
Sat 03:55:21 PM 47.9470 7.4860 112° Southeast 464 534 37,000  Level FlightAware ADS-B
Sat 03:56:01 PM 47.9160 7.6000 112° Southeast 464 534 37,000  Level FlightAware ADS-B
Sat 03:56:36 PM 47.8710 7.6990 124° Southeast 467 537 37,000  Level FlightAware ADS-B
Sat 03:57:17 PM 47.8150 7.7990 130° Southeast 465 535 37,000  Level FlightAware ADS-B
Sat 03:57:56 PM 47.7610 7.8980 129° Southeast 463 533 37,000  Level FlightAware ADS-B
Sat 03:58:41 PM 47.7000 8.0070 130° Southeast 461 531 37,000  Level FlightAware ADS-B
Sat 03:59:22 PM 47.6460 8.0990 131° Southeast 468 539 37,000  Level FlightAware ADS-B
Sat 04:00:07 PM 47.5780 8.2170 130° Southeast 467 537 37,000  Level FlightAware ADS-B
Sat 04:00:47 PM 47.5220 8.3140 131° Southeast 467 537 37,000  Level FlightAware ADS-B
Sat 04:01:25 PM 47.4670 8.4070 131° Southeast 467 537 37,000  Level FlightAware ADS-B
Sat 04:02:05 PM 47.4110 8.5020 131° Southeast 468 539 37,000  Level FlightAware ADS-B
Sat 04:02:47 PM 47.3520 8.6020 131° Southeast 468 539 37,000  Level FlightAware ADS-B
Sat 04:03:33 PM 47.2860 8.7140 131° Southeast 469 540 37,000  Level FlightAware ADS-B
Sat 04:04:13 PM 47.2300 8.8090 131° Southeast 469 540 37,000  Level FlightAware ADS-B
Sat 04:04:53 PM 47.1730 8.9050 131° Southeast 469 540 37,000 -143 Level FlightAware ADS-B
Sat 04:05:37 PM 47.1080 9.0120 132° Southeast 466 536 36,800 -474 Descending FlightAware ADS-B
Sat 04:06:09 PM 47.0650 9.0850 131° Southeast 468 539 36,400 -615 Descending FlightAware ADS-B
Sat 04:06:55 PM 46.9980 9.1960 131° Southeast 471 542 36,000 -414 Descending FlightAware ADS-B
Sat 04:07:36 PM 46.9430 9.2880 131° Southeast 461 531 35,800 -560 Descending FlightAware ADS-B
Sat 04:08:10 PM 46.8910 9.3720 132° Southeast 463 533 35,300 -1,500 Descending FlightAware ADS-B
Sat 04:08:52 PM 46.8300 9.4740 131° Southeast 469 540 33,900 -1,884 Descending FlightAware ADS-B
Sat 04:09:36 PM 46.7710 9.5700 132° Southeast 454 522 32,600 -1,902 Descending FlightAware ADS-B
Sat 04:10:14 PM 46.7170 9.6580 132° Southeast 445 512 31,300 -1,950 Descending FlightAware ADS-B
Sat 04:10:56 PM 46.6640 9.7450 132° Southeast 437 503 30,000 -2,000 Descending FlightAware ADS-B
Sat 04:11:38 PM 46.6060 9.8390 132° Southeast 430 495 28,500 -2,023 Descending FlightAware ADS-B
Sat 04:12:22 PM 46.5460 9.9350 132° Southeast 412 474 27,100 -1,098 Descending FlightAware ADS-B
Sat 04:13:00 PM 46.4980 10.0130 132° Southeast 409 471 27,000 -81 Descending FlightAware ADS-B
Sat 04:13:36 PM 46.4510 10.0780 136° Southeast 411 473 27,000  Level FlightAware ADS-B
Sat 04:14:22 PM 46.3820 10.1600 141° Southeast 410 472 27,000 -559 Level FlightAware ADS-B
Sat 04:15:34 PM 46.2980 10.2600 141° Southeast 406 467 25,900 -1,381 Descending FlightAware ADS-B
Sat 04:16:15 PM 46.2190 10.3540 141° Southeast 397 457 24,400 -2,100 Descending FlightAware ADS-B
Sat 04:16:54 PM 46.1630 10.4210 140° Southeast 388 447 23,100 -2,127 Descending FlightAware ADS-B
Sat 04:17:34 PM 46.1090 10.4850 141° Southeast 384 442 21,600 -1,800 Descending FlightAware ADS-B
Sat 04:18:14 PM 46.0560 10.5480 140° Southeast 363 418 20,700 -1,500 Descending FlightAware ADS-B
Sat 04:18:26 PM 46.0410 10.5730 131° Southeast 358 412 20,300 -1,607 Descending FlightAware ADS-B
Sat 04:19:10 PM 46.0100 10.6600 117° Southeast 347 399 19,200 -1,642 Descending FlightAware ADS-B
Sat 04:20:01 PM 45.9730 10.7630 117° Southeast 335 386 17,700 -1,553 Descending FlightAware ADS-B
Sat 04:20:35 PM 45.9500 10.8270 117° Southeast 323 372 17,000 -1,600 Descending FlightAware ADS-B
Sat 04:21:16 PM 45.9210 10.9070 118° Southeast 326 375 15,700 -1,835 Descending FlightAware ADS-B
Sat 04:22:00 PM 45.8900 10.9930 117° Southeast 323 372 14,400 -1,553 Descending FlightAware ADS-B
Sat 04:22:41 PM 45.8610 11.0710 118° Southeast 315 362 13,500 -1,300 Descending FlightAware ADS-B
Sat 04:23:00 PM 45.8390 11.0970 141° Southeast 318 366 13,100 -1,034 Descending FlightAware ADS-B
Sat 04:23:10 PM 45.8250 11.1030 163° South 302 348 13,000 -109 Descending FlightAware ADS-B
Sat 04:23:55 PM 45.7660 11.1030 180° South 281 323 13,000  Level FlightAware ADS-B
Sat 04:24:32 PM 45.7190 11.1010 182° South 285 328 13,000  Level FlightAware ADS-B
Sat 04:25:20 PM 45.6540 11.0990 181° South 287 330 13,000  Level FlightAware ADS-B
Sat 04:25:45 PM 45.6240 11.0950 185° South 282 325 13,000  Level FlightAware ADS-B
Sat 04:25:56 PM 45.6110 11.0830 213° Southwest 277 319 13,000  Level FlightAware ADS-B
Sat 04:26:16 PM 45.5990 11.0540 239° Southwest 268 308 13,000  Level FlightAware ADS-B
Sat 04:26:41 PM 45.6060 11.0100 283° West 254 292 13,000  Level FlightAware ADS-B
Sat 04:26:56 PM 45.6200 10.9950 323° Northwest 248 285 13,000  Level FlightAware ADS-B
Sat 04:27:06 PM 45.6300 10.9910 344° North 247 284 13,000  Level FlightAware ADS-B
Sat 04:27:35 PM 45.6600 11.0080 22° Northeast 263 303 13,000  Level FlightAware ADS-B
Sat 04:27:50 PM 45.6700 11.0360 63° Northeast 269 310 13,000  Level FlightAware ADS-B
Sat 04:28:20 PM 45.6600 11.0860 106° East 278 320 13,000  Level FlightAware ADS-B
Sat 04:28:36 PM 45.6440 11.1030 143° Southeast 287 330 13,000  Level FlightAware ADS-B
Sat 04:28:46 PM 45.6310 11.1080 165° South 278 320 13,000  Level FlightAware ADS-B
Sat 04:29:20 PM 45.5860 11.1040 184° South 275 316 13,000  Level FlightAware ADS-B
Sat 04:29:40 PM 45.5670 11.0790 223° Southwest 271 312 13,000  Level FlightAware ADS-B
Sat 04:29:51 PM 45.5630 11.0640 249° West 271 312 13,000  Level FlightAware ADS-B
Sat 04:30:00 PM 45.5610 11.0470 260° West 265 305 13,000  Level FlightAware ADS-B
Sat 04:30:20 PM 45.5720 11.0140 295° West 255 293 13,000  Level FlightAware ADS-B
Sat 04:30:30 PM 45.5800 11.0050 322° Northwest 251 289 13,000  Level FlightAware ADS-B
Sat 04:30:45 PM 45.5980 11.0000 349° North 256 295 13,000  Level FlightAware ADS-B
Sat 04:31:16 PM 45.6320 11.0170 19° North 249 287 13,000  Level FlightAware ADS-B
Sat 04:31:45 PM 45.6630 11.0310 18° North 226 260 13,000  Level FlightAware ADS-B
Sat 04:32:25 PM 45.7060 11.0330 North 223 257 13,000  Level FlightAware ADS-B
Sat 04:33:10 PM 45.7480 11.0060 336° Northwest 236 272 13,000  Level FlightAware ADS-B
Sat 04:33:22 PM 45.7510 10.9890 284° West 241 277 13,000  Level FlightAware ADS-B
Sat 04:33:51 PM 45.7390 10.9480 247° West 253 291 13,000  Level FlightAware ADS-B
Sat 04:34:01 PM 45.7290 10.9390 212° Southwest 250 288 13,000  Level FlightAware ADS-B
Sat 04:34:10 PM 45.7190 10.9360 192° South 262 302 13,000  Level FlightAware ADS-B
Sat 04:34:36 PM 45.6920 10.9530 156° South 259 298 13,000  Level FlightAware ADS-B
Sat 04:34:51 PM 45.6840 10.9770 116° Southeast 251 289 13,000  Level FlightAware ADS-B
Sat 04:35:20 PM 45.6680 11.0190 119° Southeast 252 290 13,000  Level FlightAware ADS-B
Sat 04:35:35 PM 45.6510 11.0260 164° South 261 300 13,000  Level FlightAware ADS-B
Sat 04:35:56 PM 45.6280 11.0220 187° South 259 298 13,000  Level FlightAware ADS-B
Sat 04:36:11 PM 45.6150 11.0030 226° Southwest 247 284 13,000  Level FlightAware ADS-B
Sat 04:36:21 PM 45.6120 10.9890 253° West 244 281 13,000  Level FlightAware ADS-B
Sat 04:37:04 PM 45.6330 10.9320 298° West 229 264 13,000  Level FlightAware ADS-B
Sat 04:37:18 PM 45.6480 10.9290 352° North 228 262 13,000  Level FlightAware ADS-B
Sat 04:38:16 PM 45.7100 10.9310 North 230 265 13,000  Level FlightAware ADS-B
Sat 04:38:40 PM 45.7340 10.9360 North 234 269 13,000  Level FlightAware ADS-B
Sat 04:38:52 PM 45.7450 10.9490 40° Northeast 239 275 13,000  Level FlightAware ADS-B
Sat 04:39:10 PM 45.7520 10.9750 69° East 247 284 13,000  Level FlightAware ADS-B
Sat 04:39:41 PM 45.7400 11.0190 111° Southeast 252 290 13,000  Level FlightAware ADS-B
Sat 04:39:51 PM 45.7280 11.0280 152° Southeast 254 292 13,000  Level FlightAware ADS-B
Sat 04:40:01 PM 45.7170 11.0300 173° South 262 302 13,000  Level FlightAware ADS-B
Sat 04:40:46 PM 45.6640 11.0280 182° South 260 299 13,000  Level FlightAware ADS-B
Sat 04:41:21 PM 45.6210 11.0270 181° South 259 298 13,000  Level FlightAware ADS-B
Sat 04:42:06 PM 45.5650 11.0230 183° South 262 302 13,000  Level FlightAware ADS-B
Sat 04:42:46 PM 45.5180 11.0150 187° South 259 298 13,000 212 Level FlightAware ADS-B
Sat 04:43:31 PM 45.4720 10.9770 210° Southwest 245 282 13,300 1,200 Climbing FlightAware ADS-B
Sat 04:44:11 PM 45.4370 10.9290 224° Southwest 281 323 14,700 1,275 Climbing FlightAware ADS-B
Sat 04:44:51 PM 45.4050 10.8750 230° Southwest 261 300 15,000 212 Climbing FlightAware ADS-B
Sat 04:45:36 PM 45.3640 10.8210 223° Southwest 272 313 15,000  Level FlightAware ADS-B
Sat 04:46:21 PM 45.3120 10.7970 198° South 276 318 15,000  Level FlightAware ADS-B
Sat 04:47:01 PM 45.2590 10.7940 182° South 278 320 15,000  Level FlightAware ADS-B
Sat 04:47:41 PM 45.2070 10.7940 180° South 272 313 15,000  Level FlightAware ADS-B
Sat 04:48:11 PM 45.1700 10.8050 168° South 272 313 15,000  Level FlightAware ADS-B
Sat 04:48:51 PM 45.1210 10.8290 161° South 273 314 15,000  Level FlightAware ADS-B
Sat 04:49:31 PM 45.0710 10.8530 161° South 276 318 15,000  Level FlightAware ADS-B
Sat 04:50:16 PM 45.0220 10.8970 148° Southeast 274 315 15,000  Level FlightAware ADS-B
Sat 04:51:01 PM 44.9770 10.9500 140° Southeast 277 319 15,000  Level FlightAware ADS-B
Sat 04:51:41 PM 44.9380 10.9950 141° Southeast 282 325 15,000  Level FlightAware ADS-B
Sat 04:52:21 PM 44.9010 11.0510 133° Southeast 280 322 15,000  Level FlightAware ADS-B
Sat 04:53:01 PM 44.8660 11.1070 131° Southeast 280 322 15,000  Level FlightAware ADS-B
Sat 04:53:46 PM 44.8270 11.1710 131° Southeast 279 321 15,000  Level FlightAware ADS-B
Sat 04:54:26 PM 44.7920 11.2270 131° Southeast 282 325 15,000  Level FlightAware ADS-B
Sat 04:55:11 PM 44.7540 11.2900 130° Southeast 281 323 15,000  Level FlightAware ADS-B
Sat 04:55:51 PM 44.7210 11.3460 130° Southeast 280 322 15,000  Level FlightAware ADS-B
Sat 04:56:31 PM 44.6880 11.4010 130° Southeast 281 323 15,000  Level FlightAware ADS-B
Sat 04:57:16 PM 44.6530 11.4600 130° Southeast 279 321 15,000  Level FlightAware ADS-B
Sat 04:57:41 PM 44.6390 11.5050 114° Southeast 287 330 15,000  Level FlightAware ADS-B
Sat 04:58:10 PM 44.6570 11.5500 61° Northeast 282 325 15,000  Level FlightAware ADS-B
Sat 04:58:40 PM 44.6900 11.5810 34° Northeast 275 316 15,000  Level FlightAware ADS-B
Sat 04:58:51 PM 44.7030 11.5840 North 258 297 15,000  Level FlightAware ADS-B
Sat 04:59:06 PM 44.7210 11.5770 345° North 251 289 15,000  Level FlightAware ADS-B
Sat 04:59:21 PM 44.7340 11.5620 321° Northwest 248 285 15,000  Level FlightAware ADS-B
Sat 04:59:35 PM 44.7400 11.5410 292° West 242 278 15,000  Level FlightAware ADS-B
Sat 05:00:00 PM 44.7330 11.5040 255° West 247 284 15,000  Level FlightAware ADS-B
Sat 05:00:40 PM 44.7020 11.4570 227° Southwest 242 278 15,000  Level FlightAware ADS-B
Sat 05:01:21 PM 44.6710 11.4140 225° Southwest 244 281 15,000  Level FlightAware ADS-B
Sat 05:01:35 PM 44.6640 11.3900 248° West 243 280 15,000  Level FlightAware ADS-B
Sat 05:02:10 PM 44.6510 11.3390 250° West 242 278 15,000  Level FlightAware ADS-B
Sat 05:02:51 PM 44.6330 11.2780 247° West 245 282 15,000  Level FlightAware ADS-B
Sat 05:03:31 PM 44.6170 11.2200 249° West 246 283 15,000  Level FlightAware ADS-B
Sat 05:04:15 PM 44.6000 11.1510 251° West 247 284 15,000 -480 Level FlightAware ADS-B
Sat 05:04:46 PM 44.6180 11.1120 303° West 251 289 14,400 -1,171 Descending FlightAware ADS-B
Sat 05:04:56 PM 44.6300 11.1070 343° North 247 284 14,200 -1,171 Descending FlightAware ADS-B
Sat 05:05:27 PM 44.6650 11.1100 North 247 284 13,600 -1,114 Descending FlightAware ADS-B
Sat 05:06:06 PM 44.7130 11.1160 North 243 280 12,900 -1,211 Descending FlightAware ADS-B
Sat 05:07:21 PM 44.7840 11.0850 343° North 239 275 11,300 -1,200 Descending FlightAware ADS-B
Sat 05:07:46 PM 44.7810 11.0490 263° West 237 273 10,900 -1,108 Descending FlightAware ADS-B
Sat 05:08:26 PM 44.7740 10.9860 261° West 234 269 10,100 -1,457 Descending FlightAware ADS-B
Sat 05:08:56 PM 44.7660 10.9420 256° West 235 270 9,200 -1,733 Descending FlightAware ADS-B
Sat 05:09:11 PM 44.7550 10.9280 222° Southwest 236 272 8,800 -1,610 Descending FlightAware ADS-B
Sat 05:09:37 PM 44.7300 10.9070 211° Southwest 241 277 8,100 -1,393 Descending FlightAware ADS-B
Sat 05:10:07 PM 44.7010 10.8820 212° Southwest 231 266 7,500 -1,279 Descending FlightAware ADS-B
Sat 05:10:38 PM 44.6730 10.8590 210° Southwest 232 267 6,800 -1,333 Descending FlightAware ADS-B
Sat 05:11:01 PM 44.6490 10.8380 212° Southwest 231 266 6,300 -1,111 Descending FlightAware ADS-B
Sat 05:11:32 PM 44.6290 10.8280 200° South 238 274 5,800 -1,548 Descending FlightAware ADS-B
Sat 05:12:03 PM 44.5990 10.8680 136° Southeast 239 275 4,700 -2,036 Descending FlightAware ADS-B
Sat 05:12:28 PM 44.5980 10.9060 92° East 246 283 3,900 -1,733 Descending FlightAware ADS-B
Sat 05:12:48 PM 44.5980 10.9410 90° East 246 283 3,400 -1,250 Descending FlightAware ADS-B
Sat 05:13:16 PM 44.5970 10.9830 92° East 237 273 2,900 -1,019 Descending FlightAware ADS-B
Sat 05:13:41 PM 44.5970 11.0200 90° East 225 259 2,500 -436 Descending FlightAware ADS-B
Sat 05:14:11 PM 44.5960 11.0600 92° East 202 232 2,500  Level FlightAware ADS-B
Sat 05:14:26 PM 44.5960 11.0810 90° East 195 224 2,500  Level FlightAware ADS-B
Sat 05:14:51 PM 44.5960 11.1100 90° East 179 206 2,500 -439 Level FlightAware ADS-B
Sat 05:15:07 PM 44.5930 11.1270 104° East 176 203 2,200 -800 Descending FlightAware ADS-B
Sat 05:15:21 PM 44.5880 11.1410 117° Southeast 176 203 2,100 -615 Descending FlightAware ADS-B
Sat 05:15:46 PM 44.5810 11.1610 116° Southeast 159 183 1,800 -750 Descending FlightAware ADS-B
Sat 05:16:17 PM 44.5710 11.1880 117° Southeast 124 143 1,400 -429 Descending FlightAware ADS-B
Sat 05:16:42 PM 44.5670 11.2040 109° East 124 143 1,400  Level FlightAware ADS-B
Sat 05:19:00 PM 44.6899 11.3515 40° Northeast  Level Estimated
Sat 05:20:00 PM 44.7433 11.4158 41° Northeast  Level Estimated
Sat 05:21:00 PM 44.7966 11.4802 41° Northeast  Level Estimated
Sat 05:22:00 PM 44.8499 11.5447 41° Northeast  Level Estimated
Sat 05:23:00 PM 44.9032 11.6094 41° Northeast  Level Estimated
Sat 05:24:00 PM 44.9564 11.6742 41° Northeast  Level Estimated
Sat 05:25:00 PM 45.0096 11.7391 41° Northeast  Level Estimated
Sat 05:26:00 PM 45.0627 11.8041 41° Northeast  Level Estimated
Sat 05:27:00 PM 45.1158 11.8693 41° Northeast  Level Estimated
Sat 05:28:00 PM 45.1689 11.9345 41° Northeast  Level Estimated
Sat 05:29:00 PM 45.2220 11.9999 41° Northeast  Level Estimated
Sat 05:30:00 PM 45.2750 12.0654 41° Northeast  Level Estimated
Sat 05:31:00 PM 45.3279 12.1311 41° Northeast  Level Estimated

Login

Don't have an account? Register now (free) for customized features, flight alerts, and more!